Time;durP1;ratioP1;P1;durP2;ratioP2;P2;SDS_P1;SDS_P2;PMS_P1;PMS_P2;Temp;Humidity;BMP_temperature;BMP_pressure;BME280_temperature;BME280_humidity;BME280_pressure;Samples;Min_cycle;Max_cycle;Signal;HPM_P1;HPM_P2
2024/01/10 00:01:51;;;;;;;1999.90;999.90;;;-5.20;99.90;;;;;;6097094;23;20010;-73
2024/01/10 00:04:16;;;;;;;1999.90;999.90;;;-5.30;99.90;;;;;;6097305;23;20015;-72
2024/01/10 00:06:43;;;;;;;1999.90;999.90;;;-5.20;99.90;;;;;;6097000;23;20335;-72
2024/01/10 00:09:08;;;;;;;1999.90;999.90;;;-5.30;99.90;;;;;;6071311;23;20466;-72
2024/01/10 00:11:34;;;;;;;1999.90;999.90;;;-5.30;99.90;;;;;;6096919;23;20018;-72
2024/01/10 00:13:59;;;;;;;1999.90;999.90;;;-5.20;99.90;;;;;;6097034;23;20089;-72
2024/01/10 00:16:26;;;;;;;1999.90;999.90;;;-5.20;99.90;;;;;;6096930;23;20014;-72
2024/01/10 00:18:52;;;;;;;1999.90;999.90;;;-5.20;99.90;;;;;;6097375;23;20422;-72
2024/01/10 00:21:17;;;;;;;1999.90;999.90;;;-5.10;99.90;;;;;;6096836;23;20014;-73
2024/01/10 00:23:43;;;;;;;1999.90;999.90;;;-5.10;99.90;;;;;;6097208;23;20447;-73
2024/01/10 00:26:08;;;;;;;1999.90;999.90;;;-5.00;99.90;;;;;;6097451;23;20054;-73
2024/01/10 00:28:34;;;;;;;1999.90;999.90;;;-4.90;99.90;;;;;;6099093;23;20091;-72
2024/01/10 00:30:59;;;;;;;1999.90;999.90;;;-4.90;99.90;;;;;;6098902;23;20046;-72
2024/01/10 00:33:25;;;;;;;1999.90;999.90;;;-4.80;99.90;;;;;;6099002;23;20043;-72
2024/01/10 00:35:51;;;;;;;1999.90;999.90;;;-4.70;99.90;;;;;;6098671;23;20034;-72
2024/01/10 00:38:16;;;;;;;1999.90;999.90;;;-4.60;99.90;;;;;;6098904;23;20030;-72
2024/01/10 00:40:42;;;;;;;1999.90;999.90;;;-4.60;99.90;;;;;;6099139;23;20014;-72
2024/01/10 00:43:07;;;;;;;1999.90;999.90;;;-4.50;99.90;;;;;;6098619;23;20011;-72
2024/01/10 00:45:33;;;;;;;1999.90;999.90;;;-4.50;99.90;;;;;;6098829;23;20018;-72
2024/01/10 00:47:59;;;;;;;1999.90;999.90;;;-4.40;99.90;;;;;;6098500;23;20133;-73
2024/01/10 00:50:24;;;;;;;1999.90;999.90;;;-4.40;99.90;;;;;;6098773;23;20010;-72
2024/01/10 00:52:50;;;;;;;1999.90;999.90;;;-4.40;99.90;;;;;;6098509;23;20023;-72
2024/01/10 00:55:15;;;;;;;1999.90;999.90;;;-4.30;99.90;;;;;;6098848;23;20007;-72
2024/01/10 00:57:41;;;;;;;1999.90;999.90;;;-4.30;99.90;;;;;;6098655;23;20010;-72
2024/01/10 01:00:09;;;;;;;1999.90;999.90;;;-4.30;99.90;;;;;;6073070;23;20002;-73
2024/01/10 01:02:35;;;;;;;1999.90;999.90;;;-4.30;99.90;;;;;;6098337;23;20010;-72
2024/01/10 01:05:02;;;;;;;1999.90;999.90;;;-4.30;99.90;;;;;;6098688;23;20472;-72
2024/01/10 01:07:27;;;;;;;1999.90;999.90;;;-4.30;99.90;;;;;;6098527;23;20015;-72
2024/01/10 01:09:53;;;;;;;1999.90;999.90;;;-4.30;99.90;;;;;;6098695;23;20007;-72
2024/01/10 01:12:18;;;;;;;1999.90;999.90;;;-4.30;99.90;;;;;;6098186;23;20019;-73
2024/01/10 01:14:44;;;;;;;1999.90;999.90;;;-4.20;99.90;;;;;;6098664;23;20087;-72
2024/01/10 01:17:10;;;;;;;1999.90;999.90;;;-4.30;99.90;;;;;;6097807;23;20034;-72
2024/01/10 01:19:35;;;;;;;1999.90;999.90;;;-4.30;99.90;;;;;;6098649;23;20041;-72
2024/01/10 01:22:01;;;;;;;1999.90;999.90;;;-4.20;99.90;;;;;;6072428;23;20014;-72
2024/01/10 01:24:26;;;;;;;1999.90;999.90;;;-4.20;99.90;;;;;;6098444;23;20349;-73
2024/01/10 01:26:52;;;;;;;1999.90;999.90;;;-4.10;99.90;;;;;;6098372;23;20030;-72
2024/01/10 01:29:18;;;;;;;1999.90;999.90;;;-4.20;99.90;;;;;;6098565;23;20006;-72
2024/01/10 01:31:44;;;;;;;1999.90;999.90;;;-4.20;99.90;;;;;;6098086;23;20022;-72
2024/01/10 01:34:09;;;;;;;1999.90;999.90;;;-4.20;99.90;;;;;;6072547;23;20022;-72
2024/01/10 01:36:35;;;;;;;1999.90;999.90;;;-4.20;99.90;;;;;;6098268;23;19999;-73
2024/01/10 01:39:01;;;;;;;1999.90;999.90;;;-4.20;99.90;;;;;;6098179;23;20057;-72
2024/01/10 01:41:26;;;;;;;1999.90;999.90;;;-4.20;99.90;;;;;;6098200;23;20018;-72
2024/01/10 01:43:52;;;;;;;1999.90;999.90;;;-4.10;99.90;;;;;;6098438;23;20003;-73
2024/01/10 01:46:18;;;;;;;1999.90;999.90;;;-4.10;99.90;;;;;;6098199;23;20011;-73
2024/01/10 01:48:43;;;;;;;1999.90;999.90;;;-4.10;99.90;;;;;;6098196;23;20010;-72
2024/01/10 01:51:11;;;;;;;1999.90;999.90;;;-4.10;99.90;;;;;;6098094;23;20019;-72
2024/01/10 01:53:37;;;;;;;1999.90;999.90;;;-4.00;99.90;;;;;;6072419;23;20026;-72
2024/01/10 01:56:06;;;;;;;1999.90;999.90;;;-4.00;99.90;;;;;;6097998;23;20065;-72
2024/01/10 01:58:33;;;;;;;1999.90;999.90;;;-3.80;99.90;;;;;;6098259;23;20029;-72
2024/01/10 02:00:59;;;;;;;1999.90;999.90;;;-3.90;99.90;;;;;;6098030;23;20045;-72
2024/01/10 02:03:26;;;;;;;1999.90;999.90;;;-3.90;99.90;;;;;;6098006;23;20030;-72
2024/01/10 02:05:52;;;;;;;1999.90;999.90;;;-3.90;99.90;;;;;;6098068;23;20427;-72
2024/01/10 02:08:17;;;;;;;1999.90;999.90;;;-3.90;99.90;;;;;;6097526;23;20007;-72
2024/01/10 02:10:43;;;;;;;1999.90;999.90;;;-3.90;99.90;;;;;;6097968;23;20011;-72
2024/01/10 02:13:10;;;;;;;1999.90;999.90;;;-3.90;99.90;;;;;;6097607;23;20019;-72
2024/01/10 02:15:37;;;;;;;1999.90;999.90;;;-3.90;99.90;;;;;;6098261;23;20451;-72
2024/01/10 02:18:03;;;;;;;1999.90;999.90;;;-3.90;99.90;;;;;;6097586;23;20455;-73
2024/01/10 02:20:28;;;;;;;1999.90;999.90;;;-3.90;99.90;;;;;;6098014;23;20003;-72
2024/01/10 02:22:54;;;;;;;1999.90;999.90;;;-3.90;99.90;;;;;;6097673;23;20015;-72
2024/01/10 02:25:21;;;;;;;1999.90;999.90;;;-3.90;99.90;;;;;;6098030;23;20007;-72
2024/01/10 02:27:46;;;;;;;1999.90;999.90;;;-3.90;99.90;;;;;;6097813;23;20093;-72
2024/01/10 02:30:12;;;;;;;1999.90;999.90;;;-4.00;99.90;;;;;;6097946;23;20046;-72
2024/01/10 02:32:38;;;;;;;1999.90;999.90;;;-3.90;99.90;;;;;;6097288;23;20379;-72
2024/01/10 02:35:04;;;;;;;1999.90;999.90;;;-3.90;99.90;;;;;;6097880;23;20007;-72
2024/01/10 02:37:29;;;;;;;1999.90;999.90;;;-3.80;99.90;;;;;;6097445;23;20014;-72
2024/01/10 02:39:55;;;;;;;1999.90;999.90;;;-3.80;99.90;;;;;;6097784;23;20030;-73
2024/01/10 02:42:21;;;;;;;1999.90;999.90;;;-3.80;99.90;;;;;;6097482;23;20343;-72
2024/01/10 02:44:46;;;;;;;1999.90;999.90;;;-3.80;99.90;;;;;;6097821;23;19999;-72
2024/01/10 02:47:12;;;;;;;1999.90;999.90;;;-3.80;99.90;;;;;;6097489;23;20011;-72
2024/01/10 02:49:39;;;;;;;1999.90;999.90;;;-3.80;99.90;;;;;;6097607;23;20035;-72
2024/01/10 02:52:05;;;;;;;1999.90;999.90;;;-3.70;99.90;;;;;;6097300;23;20035;-72
2024/01/10 02:54:30;;;;;;;1999.90;999.90;;;-3.70;99.90;;;;;;6097663;23;20027;-72
2024/01/10 02:56:56;;;;;;;1999.90;999.90;;;-3.60;99.90;;;;;;6071990;23;20034;-72
2024/01/10 02:59:21;;;;;;;1999.90;999.90;;;-3.60;99.90;;;;;;6097685;23;20015;-72
2024/01/10 03:01:47;;;;;;;1999.90;999.90;;;-3.60;99.90;;;;;;6097069;23;20507;-72
2024/01/10 03:04:12;;;;;;;1999.90;999.90;;;-3.60;99.90;;;;;;6097658;23;20007;-72
2024/01/10 03:06:38;;;;;;;1999.90;999.90;;;-3.60;99.90;;;;;;6071910;23;20007;-72
2024/01/10 03:09:03;;;;;;;1999.90;999.90;;;-3.60;99.90;;;;;;6097491;23;20443;-72
2024/01/10 03:11:30;;;;;;;1999.90;999.90;;;-3.70;99.90;;;;;;6097357;23;20427;-73
2024/01/10 03:14:07;;;;;;;1999.90;999.90;;;-3.70;99.90;;;;;;6071620;23;20023;-73
2024/01/10 03:16:33;;;;;;;1999.90;999.90;;;-3.70;99.90;;;;;;6097054;23;20041;-72
2024/01/10 03:18:58;;;;;;;1999.90;999.90;;;-3.70;99.90;;;;;;6097495;23;20398;-72
2024/01/10 03:21:27;;;;;;;1999.90;999.90;;;-3.70;99.90;;;;;;6097132;23;20007;-72
2024/01/10 03:23:59;;;;;;;1999.90;999.90;;;-3.70;99.90;;;;;;6097478;23;20014;-72
2024/01/10 03:26:25;;;;;;;1999.90;999.90;;;-3.70;99.90;;;;;;6096985;23;20013;-72
2024/01/10 03:28:52;;;;;;;1999.90;999.90;;;-3.80;99.90;;;;;;6097365;23;20408;-72
2024/01/10 03:31:17;;;;;;;1999.90;999.90;;;-3.80;99.90;;;;;;6097054;23;20410;-73
2024/01/10 03:33:43;;;;;;;1999.90;999.90;;;-3.90;99.90;;;;;;6097320;23;20011;-72
2024/01/10 03:36:13;;;;;;;1999.90;999.90;;;-3.80;99.90;;;;;;6071773;23;20088;-72
2024/01/10 03:38:39;;;;;;;1999.90;999.90;;;-3.90;99.90;;;;;;6071407;23;20093;-73
2024/01/10 03:41:05;;;;;;;1999.90;999.90;;;-4.00;99.90;;;;;;6097291;23;20408;-72
2024/01/10 03:43:31;;;;;;;1999.90;999.90;;;-4.10;99.90;;;;;;6097209;23;20019;-72
2024/01/10 03:45:57;;;;;;;1999.90;999.90;;;-4.00;99.90;;;;;;6097190;23;20003;-72
2024/01/10 03:48:23;;;;;;;1999.90;999.90;;;-4.00;99.90;;;;;;6097393;23;20015;-72
2024/01/10 03:50:48;;;;;;;1999.90;999.90;;;-4.00;99.90;;;;;;6097388;23;20015;-73
2024/01/10 03:53:14;;;;;;;1999.90;999.90;;;-4.00;99.90;;;;;;6096879;23;20015;-72
2024/01/10 03:55:39;;;;;;;1999.90;999.90;;;-4.00;99.90;;;;;;6071680;23;20007;-72
2024/01/10 03:58:05;;;;;;;1999.90;999.90;;;-4.10;99.90;;;;;;6097195;23;20014;-72
2024/01/10 04:00:31;;;;;;;1999.90;999.90;;;-4.10;99.90;;;;;;6097169;23;20015;-73
2024/01/10 04:02:56;;;;;;;1999.90;999.90;;;-4.20;99.90;;;;;;6073157;23;20011;-72
2024/01/10 04:05:24;;;;;;;1999.90;999.90;;;-4.30;99.90;;;;;;6099347;23;20309;-72
2024/01/10 04:07:50;;;;;;;1999.90;999.90;;;-4.30;99.90;;;;;;6073233;23;20372;-72
2024/01/10 04:10:16;;;;;;;1999.90;999.90;;;-4.40;99.90;;;;;;6099276;23;20018;-72
2024/01/10 04:12:42;;;;;;;1999.90;999.90;;;-4.40;99.90;;;;;;6098684;23;20007;-72
2024/01/10 04:15:08;;;;;;;1999.90;999.90;;;-4.50;99.90;;;;;;6099206;23;20007;-72
2024/01/10 04:17:33;;;;;;;1999.90;999.90;;;-4.50;99.90;;;;;;6098445;23;20447;-72
2024/01/10 04:19:59;;;;;;;1999.90;999.90;;;-4.50;99.90;;;;;;6099048;23;19999;-72
2024/01/10 04:22:25;;;;;;;1999.90;999.90;;;-4.60;99.90;;;;;;6098820;23;20093;-72
2024/01/10 04:24:51;;;;;;;1999.90;999.90;;;-4.60;99.90;;;;;;6073405;23;20363;-73
2024/01/10 04:27:18;;;;;;;1999.90;999.90;;;-4.60;99.90;;;;;;6098828;23;20097;-72
2024/01/10 04:29:44;;;;;;;1999.90;999.90;;;-4.60;99.90;;;;;;6098992;23;20007;-72
2024/01/10 04:32:09;;;;;;;1999.90;999.90;;;-4.50;99.90;;;;;;6098495;23;20007;-72
2024/01/10 04:34:35;;;;;;;1999.90;999.90;;;-4.60;99.90;;;;;;6099040;23;20443;-72
2024/01/10 04:37:01;;;;;;;1999.90;999.90;;;-4.50;99.90;;;;;;6098833;23;20011;-72
2024/01/10 04:39:26;;;;;;;1999.90;999.90;;;-4.50;99.90;;;;;;6098855;23;20011;-72
2024/01/10 04:41:52;;;;;;;1999.90;999.90;;;-4.50;99.90;;;;;;6098516;23;20063;-72
2024/01/10 04:44:17;;;;;;;1999.90;999.90;;;-4.40;99.90;;;;;;6098993;23;20010;-72
2024/01/10 04:46:43;;;;;;;1999.90;999.90;;;-4.40;99.90;;;;;;6098670;23;20121;-72
2024/01/10 04:49:08;;;;;;;1999.90;999.90;;;-4.40;99.90;;;;;;6098913;23;20458;-73
2024/01/10 04:51:35;;;;;;;1999.90;999.90;;;-4.30;99.90;;;;;;6098504;23;20057;-73
2024/01/10 04:54:00;;;;;;;1999.90;999.90;;;-4.30;99.90;;;;;;6072969;23;20015;-73
2024/01/10 04:56:26;;;;;;;1999.90;999.90;;;-4.30;99.90;;;;;;6098609;23;20011;-73
2024/01/10 04:58:51;;;;;;;1999.90;999.90;;;-4.20;99.90;;;;;;6072864;23;20018;-73
2024/01/10 05:01:17;;;;;;;1999.90;999.90;;;-4.10;99.90;;;;;;6098319;23;20003;-73
2024/01/10 05:03:43;;;;;;;1999.90;999.90;;;-4.10;99.90;;;;;;6098668;23;20406;-73
2024/01/10 05:06:09;;;;;;;1999.90;999.90;;;-4.00;99.90;;;;;;6098468;23;20007;-73
2024/01/10 05:08:34;;;;;;;1999.90;999.90;;;-3.90;99.90;;;;;;6098645;23;20003;-73
2024/01/10 05:11:00;;;;;;;1999.90;999.90;;;-3.90;99.90;;;;;;6072632;23;20007;-73
2024/01/10 05:13:25;;;;;;;1999.90;999.90;;;-3.80;99.90;;;;;;6098074;23;20018;-73
2024/01/10 05:15:51;;;;;;;1999.90;999.90;;;-3.80;99.90;;;;;;6098607;23;20018;-74
2024/01/10 05:18:18;;;;;;;1999.90;999.90;;;-3.70;99.90;;;;;;6098850;23;20011;-74
2024/01/10 05:20:44;;;;;;;1999.90;999.90;;;-3.70;99.90;;;;;;6097356;23;20062;-74
2024/01/10 05:23:10;;;;;;;1999.90;999.90;;;-3.60;99.90;;;;;;6097932;23;20070;-73
2024/01/10 05:25:36;;;;;;;1999.90;999.90;;;-3.60;99.90;;;;;;6098628;23;20382;-76
2024/01/10 05:28:01;;;;;;;1999.90;999.90;;;-3.50;99.90;;;;;;6098328;23;20011;-74
2024/01/10 05:30:27;;;;;;;1999.90;999.90;;;-3.50;99.90;;;;;;6098416;23;20435;-72
2024/01/10 05:32:52;;;;;;;1999.90;999.90;;;-3.40;99.90;;;;;;6097871;23;20351;-74
2024/01/10 05:35:18;;;;;;;1999.90;999.90;;;-3.40;99.90;;;;;;6097922;23;20015;-71
2024/01/10 05:37:43;;;;;;;1999.90;999.90;;;-3.30;99.90;;;;;;6097768;23;20015;-71
2024/01/10 05:40:09;;;;;;;1999.90;999.90;;;-3.30;99.90;;;;;;6098116;23;20081;-71
2024/01/10 05:42:35;;;;;;;1999.90;999.90;;;-3.30;99.90;;;;;;6098190;23;20010;-71
2024/01/10 05:45:02;;;;;;;1999.90;999.90;;;-3.30;99.90;;;;;;6098104;23;20007;-71
2024/01/10 05:47:27;;;;;;;1999.90;999.90;;;-3.30;99.90;;;;;;6098054;23;20014;-71
2024/01/10 05:49:53;;;;;;;1999.90;999.90;;;-3.30;99.90;;;;;;6098381;23;20003;-71
2024/01/10 05:52:20;;;;;;;1999.90;999.90;;;-3.20;99.90;;;;;;6097862;23;20011;-71
2024/01/10 05:54:45;;;;;;;1999.90;999.90;;;-3.20;99.90;;;;;;6098222;23;20011;-71
2024/01/10 05:57:11;;;;;;;1999.90;999.90;;;-3.20;99.90;;;;;;6098181;23;20007;-72
2024/01/10 05:59:36;;;;;;;1999.90;999.90;;;-3.20;99.90;;;;;;6098276;23;20011;-71
2024/01/10 06:02:03;;;;;;;1999.90;999.90;;;-3.20;99.90;;;;;;6097814;23;20007;-71
2024/01/10 06:04:31;;;;;;;1999.90;999.90;;;-3.20;99.90;;;;;;6098190;23;20130;-71
2024/01/10 06:07:00;;;;;;;1999.90;999.90;;;-3.20;99.90;;;;;;6071885;23;20429;-72
2024/01/10 06:09:26;;;;;;;1999.90;999.90;;;-3.20;99.90;;;;;;6097838;23;20386;-71
2024/01/10 06:11:52;;;;;;;1999.90;999.90;;;-3.20;99.90;;;;;;6097791;23;20010;-71
2024/01/10 06:14:18;;;;;;;1999.90;999.90;;;-3.20;99.90;;;;;;6098128;23;20395;-71
2024/01/10 06:16:44;;;;;;;1999.90;999.90;;;-3.10;99.90;;;;;;6097796;23;20011;-71
2024/01/10 06:19:11;;;;;;;1999.90;999.90;;;-3.10;99.90;;;;;;6096492;23;20065;-71
2024/01/10 06:21:36;;;;;;;1999.90;999.90;;;-3.10;99.90;;;;;;6097383;23;20070;-69
2024/01/10 06:24:02;;;;;;;1999.90;999.90;;;-3.10;99.90;;;;;;6097660;23;20073;-70
2024/01/10 06:26:28;;;;;;;1999.90;999.90;;;-3.10;99.90;;;;;;6097715;23;20007;-70
2024/01/10 06:28:53;;;;;;;1999.90;999.90;;;-3.10;99.90;;;;;;6072169;23;20017;-71
2024/01/10 06:31:20;;;;;;;1999.90;999.90;;;-3.10;99.90;;;;;;6096989;23;20513;-70
2024/01/10 06:33:45;;;;;;;1999.90;999.90;;;-3.10;99.90;;;;;;6097365;23;20050;-70
2024/01/10 06:36:11;;;;;;;1999.90;999.90;;;-3.10;99.90;;;;;;6096960;23;20030;-70
2024/01/10 06:38:38;;;;;;;1999.90;999.90;;;-3.10;99.90;;;;;;6097945;23;20469;-70
2024/01/10 06:41:13;;;;;;;1999.90;999.90;;;-3.20;99.90;;;;;;6097342;23;20496;-70
2024/01/10 06:43:40;;;;;;;1999.90;999.90;;;-3.20;99.90;;;;;;6097899;23;20070;-70
2024/01/10 06:46:06;;;;;;;1999.90;999.90;;;-3.10;99.90;;;;;;6096108;23;20046;-70
2024/01/10 06:48:32;;;;;;;1999.90;999.90;;;-3.10;99.90;;;;;;6097792;23;20022;-70
2024/01/10 06:50:58;;;;;;;1999.90;999.90;;;-3.10;99.90;;;;;;6097620;23;20011;-71
2024/01/10 06:53:24;;;;;;;1999.90;999.90;;;-3.10;99.90;;;;;;6097524;23;20019;-71
2024/01/10 06:55:50;;;;;;;1999.90;999.90;;;-3.10;99.90;;;;;;6097237;23;20061;-71
2024/01/10 06:58:15;;;;;;;1999.90;999.90;;;-3.10;99.90;;;;;;6097636;23;20007;-71
2024/01/10 07:00:41;;;;;;;1999.90;999.90;;;-3.00;99.90;;;;;;6098102;23;20377;-71
2024/01/10 07:03:07;;;;;;;1999.90;999.90;;;-3.10;99.90;;;;;;6097548;23;20459;-71
2024/01/10 07:05:33;;;;;;;1999.90;999.90;;;-3.10;99.90;;;;;;6097588;23;20014;-72
2024/01/10 07:07:59;;;;;;;1999.90;999.90;;;-3.10;99.90;;;;;;6097445;23;20443;-71
2024/01/10 07:10:27;;;;;;;1999.90;999.90;;;-3.10;99.90;;;;;;6072021;23;20027;-73
2024/01/10 07:12:53;;;;;;;1999.90;999.90;;;-3.10;99.90;;;;;;6097087;23;20019;-71
2024/01/10 07:15:19;;;;;;;1999.90;999.90;;;-3.10;99.90;;;;;;6097552;23;20407;-71
2024/01/10 07:17:45;;;;;;;1999.90;999.90;;;-3.00;99.90;;;;;;6097029;23;20102;-71
2024/01/10 07:20:12;;;;;;;1999.90;999.90;;;-3.10;99.90;;;;;;6097514;23;20091;-71
2024/01/10 07:22:41;;;;;;;1999.90;999.90;;;-3.00;99.90;;;;;;6071590;23;20018;-72
2024/01/10 07:25:08;;;;;;;1999.90;999.90;;;-3.00;99.90;;;;;;6094004;23;20003;-71
2024/01/10 07:27:34;;;;;;;1999.90;999.90;;;-2.90;99.90;;;;;;6091414;23;20026;-71
2024/01/10 07:29:59;;;;;;;1999.90;999.90;;;-2.80;99.90;;;;;;6095684;23;20039;-71
2024/01/10 07:32:25;;;;;;;1999.90;999.90;;;-2.80;99.90;;;;;;6095521;23;20015;-71
2024/01/10 07:34:51;;;;;;;1999.90;999.90;;;-2.70;99.90;;;;;;6097013;23;20033;-70
2024/01/10 07:37:20;;;;;;;1999.90;999.90;;;-2.70;99.90;;;;;;6096472;23;20026;-72
2024/01/10 07:39:46;;;;;;;1999.90;999.90;;;-2.60;99.90;;;;;;6071299;23;20069;-70
2024/01/10 07:42:12;;;;;;;1999.90;999.90;;;-2.60;99.90;;;;;;6096739;23;20007;-70
2024/01/10 07:44:37;;;;;;;1999.90;999.90;;;-2.60;99.90;;;;;;6071519;23;20432;-70
2024/01/10 07:47:03;;;;;;;1999.90;999.90;;;-2.60;99.90;;;;;;6071391;23;20007;-70
2024/01/10 07:49:29;;;;;;;1999.90;999.90;;;-2.60;99.90;;;;;;6097252;23;20153;-70
2024/01/10 07:51:55;;;;;;;1999.90;999.90;;;-2.60;99.90;;;;;;6096695;23;20018;-70
2024/01/10 07:54:21;;;;;;;1999.90;999.90;;;-2.50;99.90;;;;;;6097099;23;20022;-71
2024/01/10 07:56:46;;;;;;;1999.90;999.90;;;-2.50;99.90;;;;;;6096960;23;20007;-71
2024/01/10 07:59:15;;;;;;;1999.90;999.90;;;-2.40;99.90;;;;;;6097379;23;20075;-70
2024/01/10 08:01:44;;;;;;;1999.90;999.90;;;-2.40;99.90;;;;;;6094572;23;20014;-71
2024/01/10 08:04:10;;;;;;;1999.90;999.90;;;-2.30;99.90;;;;;;6096828;23;20065;-70
2024/01/10 08:06:36;;;;;;;1999.90;999.90;;;-2.30;99.90;;;;;;6096886;23;20011;-71
2024/01/10 08:09:04;;;;;;;1999.90;999.90;;;-2.30;99.90;;;;;;6096827;23;20089;-70
2024/01/10 08:11:29;;;;;;;1999.90;999.90;;;-2.20;99.90;;;;;;6096353;23;20011;-70
2024/01/10 08:13:55;;;;;;;1999.90;999.90;;;-2.10;99.90;;;;;;6096833;23;20454;-71
2024/01/10 08:16:21;;;;;;;1999.90;999.90;;;-2.00;99.90;;;;;;6077919;23;20068;-71
2024/01/10 08:18:46;;;;;;;1999.90;999.90;;;-2.00;99.90;;;;;;6125865;23;20077;-70
2024/01/10 08:21:12;;;;;;;1999.90;999.90;;;-1.90;99.90;;;;;;6125741;23;20037;-70
2024/01/10 08:23:37;;;;;;;1999.90;999.90;;;-1.80;99.90;;;;;;6126136;23;20357;-71
2024/01/10 08:26:08;;;;;;;1999.90;999.90;;;-1.60;99.90;;;;;;6125589;23;20006;-70
2024/01/10 08:28:33;;;;;;;1999.90;999.90;;;-1.50;99.90;;;;;;6126192;23;20017;-71
2024/01/10 08:30:59;;;;;;;1999.90;999.90;;;-1.40;99.90;;;;;;6125985;23;20346;-71
2024/01/10 08:33:25;;;;;;;1999.90;999.90;;;-1.40;99.90;;;;;;6126392;23;20432;-72
2024/01/10 08:35:50;;;;;;;1999.90;999.90;;;-1.30;99.90;;;;;;6126322;23;20062;-76
2024/01/10 08:38:16;;;;;;;1999.90;999.90;;;-1.30;99.90;;;;;;6126985;23;20018;-75
2024/01/10 08:40:42;;;;;;;1999.90;999.90;;;-1.30;99.90;;;;;;6126861;23;20010;-73
2024/01/10 08:43:07;;;;;;;1999.90;999.90;;;-1.20;99.90;;;;;;6126623;23;20422;-77
2024/01/10 08:45:33;;;;;;;1999.90;999.90;;;-1.10;99.90;;;;;;6125353;23;20335;-74
2024/01/10 08:47:59;;;;;;;1999.90;999.90;;;-1.10;99.90;;;;;;6126268;23;20089;-75
2024/01/10 08:50:24;;;;;;;1999.90;999.90;;;-1.10;99.90;;;;;;6124024;22;20014;-75
2024/01/10 08:52:50;;;;;;;1999.90;999.90;;;-1.10;99.90;;;;;;6124766;23;20112;-74
2024/01/10 08:55:16;;;;;;;1999.90;999.90;;;-1.10;99.90;;;;;;6125956;22;20017;-74
2024/01/10 08:57:41;;;;;;;1999.90;999.90;;;-1.10;99.90;;;;;;6125076;23;20104;-74
2024/01/10 09:00:11;;;;;;;1999.90;999.90;;;-1.20;99.90;;;;;;6123789;22;20045;-74
2024/01/10 09:02:37;;;;;;;1999.90;999.90;;;-1.30;99.90;;;;;;6125813;23;20010;-74
2024/01/10 09:05:03;;;;;;;1999.90;999.90;;;-1.40;99.90;;;;;;6126912;23;20002;-74
2024/01/10 09:07:30;;;;;;;1999.90;999.90;;;-1.40;99.90;;;;;;6126757;23;20010;-74
2024/01/10 09:09:55;;;;;;;1999.90;999.90;;;-1.40;99.90;;;;;;6126544;23;20017;-74
2024/01/10 09:12:21;;;;;;;1999.90;999.90;;;-1.40;99.90;;;;;;6125273;22;20015;-74
2024/01/10 09:14:47;;;;;;;1999.90;999.90;;;-1.20;99.90;;;;;;6125184;23;20010;-74
2024/01/10 09:17:12;;;;;;;1999.90;999.90;;;-1.20;99.90;;;;;;6109947;23;20011;-74
2024/01/10 09:19:38;;;;;;;1999.90;999.90;;;-1.00;99.90;;;;;;6097446;23;20062;-74
2024/01/10 09:22:04;;;;;;;1999.90;999.90;;;-0.90;99.90;;;;;;6097144;23;20011;-76
2024/01/10 09:24:29;;;;;;;1999.90;999.90;;;-0.70;99.90;;;;;;6071640;23;20459;-77
2024/01/10 09:26:55;;;;;;;1999.90;999.90;;;-0.60;99.90;;;;;;6097295;23;20399;-76
2024/01/10 09:29:21;;;;;;;1999.90;999.90;;;-0.40;99.90;;;;;;6097221;23;20046;-75
2024/01/10 09:31:47;;;;;;;1999.90;999.90;;;-0.30;99.90;;;;;;6096271;23;20435;-75
2024/01/10 09:34:12;;;;;;;1999.90;999.90;;;-0.30;99.90;;;;;;6096198;23;20018;-75
2024/01/10 09:36:38;;;;;;;1999.90;999.90;;;-0.20;99.90;;;;;;6070390;23;20007;-76
2024/01/10 09:39:05;;;;;;;1999.90;999.90;;;-0.20;99.90;;;;;;6097427;23;20011;-76
2024/01/10 09:41:35;;;;;;;1999.90;999.90;;;-0.20;99.90;;;;;;6070340;23;20039;-76
2024/01/10 09:44:00;;;;;;;1999.90;999.90;;;-0.20;99.90;;;;;;6097469;23;20015;-76
2024/01/10 09:46:29;;;;;;;1999.90;999.90;;;-0.10;99.90;;;;;;6096442;23;20003;-76
2024/01/10 09:48:55;;;;;;;1999.90;999.90;;;0.00;99.90;;;;;;6071218;23;20451;-76
2024/01/10 09:51:22;;;;;;;1999.90;999.90;;;-0.10;99.90;;;;;;6070572;23;20007;-76
2024/01/10 09:53:51;;;;;;;1999.90;999.90;;;-0.20;99.90;;;;;;6095888;23;20011;-76
2024/01/10 09:56:17;;;;;;;1999.90;999.90;;;-0.20;99.90;;;;;;6071083;23;20011;-76
2024/01/10 09:58:49;;;;;;;1999.90;999.90;;;-0.30;99.90;;;;;;6096753;23;20046;-76
2024/01/10 10:01:15;;;;;;;1999.90;999.90;;;-0.40;99.90;;;;;;6096417;23;20007;-76
2024/01/10 10:03:45;;;;;;;1999.90;999.90;;;-0.40;99.90;;;;;;6097247;23;20474;-76
2024/01/10 10:06:11;;;;;;;1999.90;999.90;;;-0.50;99.90;;;;;;6070771;23;20091;-76
2024/01/10 10:08:38;;;;;;;1999.90;999.90;;;-0.50;99.90;;;;;;6096929;23;20142;-76
2024/01/10 10:11:03;;;;;;;1999.90;999.90;;;-0.60;99.90;;;;;;6096474;23;20003;-76
2024/01/10 10:13:30;;;;;;;1999.90;999.90;;;-0.60;99.90;;;;;;6096641;23;20086;-76
2024/01/10 10:16:02;;;;;;;1999.90;999.90;;;-0.60;99.90;;;;;;6071384;23;20439;-76
2024/01/10 10:18:29;;;;;;;1999.90;999.90;;;-0.70;99.90;;;;;;6096643;23;20413;-75
2024/01/10 10:21:11;;;;;;;1999.90;999.90;;;-0.80;99.90;;;;;;6097118;23;20007;-75
2024/01/10 10:23:38;;;;;;;1999.90;999.90;;;-0.80;99.90;;;;;;6097534;23;20022;-76
2024/01/10 10:26:20;;;;;;;1999.90;999.90;;;-0.80;99.90;;;;;;6096615;23;20457;-76
2024/01/10 10:28:47;;;;;;;1999.90;999.90;;;-0.90;99.90;;;;;;6097214;23;20461;-76
2024/01/10 10:31:13;;;;;;;1999.90;999.90;;;-0.90;99.90;;;;;;6096087;23;20383;-76
2024/01/10 10:33:39;;;;;;;1999.90;999.90;;;-0.90;99.90;;;;;;6097126;23;20046;-76
2024/01/10 10:36:06;;;;;;;1999.90;999.90;;;-0.90;99.90;;;;;;6070733;23;20057;-76
2024/01/10 10:38:31;;;;;;;1999.90;999.90;;;-0.80;99.90;;;;;;6096477;23;20065;-76
2024/01/10 10:40:59;;;;;;;1999.90;999.90;;;-0.80;99.90;;;;;;6096186;23;20432;-76
2024/01/10 10:43:25;;;;;;;1999.90;999.90;;;-0.80;99.90;;;;;;6096616;23;20014;-76
2024/01/10 10:45:51;;;;;;;1999.90;999.90;;;-0.70;99.90;;;;;;6096223;23;20537;-76
2024/01/10 10:48:20;;;;;;;1999.90;999.90;;;-0.70;99.90;;;;;;6096997;23;20011;-76
2024/01/10 10:51:06;;;;;;;1999.90;999.90;;;-0.70;99.90;;;;;;6096420;23;20010;-76
2024/01/10 10:53:38;;;;;;;1999.90;999.90;;;-0.60;99.90;;;;;;6096215;23;20043;-76
2024/01/10 10:56:05;;;;;;;1999.90;999.90;;;-0.60;99.90;;;;;;6096949;23;20081;-75
2024/01/10 10:58:39;;;;;;;1999.90;999.90;;;-0.50;99.90;;;;;;6097223;23;20010;-76
2024/01/10 11:01:07;;;;;;;1999.90;999.90;;;-0.50;99.90;;;;;;6071577;23;20094;-76
2024/01/10 11:03:38;;;;;;;1999.90;999.90;;;-0.50;99.90;;;;;;6097787;23;20092;-76
2024/01/10 11:06:05;;;;;;;1999.90;999.90;;;-0.50;99.90;;;;;;6071582;23;20514;-76
2024/01/10 11:08:38;;;;;;;1999.90;999.90;;;-0.50;99.90;;;;;;6096797;23;20011;-76
2024/01/10 11:11:07;;;;;;;1999.90;999.90;;;-0.50;99.90;;;;;;6096594;23;20003;-76
2024/01/10 11:14:06;;;;;;;1999.90;999.90;;;-0.50;99.90;;;;;;6096909;23;20046;-76
2024/01/10 11:17:04;;;;;;;1999.90;999.90;;;-0.50;99.90;;;;;;6082818;23;20011;-76
2024/01/10 11:19:58;;;;;;;1999.90;999.90;;;-0.50;99.90;;;;;;6126344;23;20033;-77
2024/01/10 11:22:39;;;;;;;1999.90;999.90;;;-0.40;99.90;;;;;;6124866;23;20512;-77
2024/01/10 11:25:05;;;;;;;1999.90;999.90;;;-0.30;99.90;;;;;;6126253;23;20021;-77
2024/01/10 11:27:30;;;;;;;1999.90;999.90;;;-0.30;99.90;;;;;;6126046;23;20003;-76
2024/01/10 11:29:58;;;;;;;1999.90;999.90;;;-0.20;99.90;;;;;;6126473;23;20019;-77
2024/01/10 11:32:24;;;;;;;1999.90;999.90;;;-0.20;99.90;;;;;;6126056;23;20069;-76
2024/01/10 11:35:00;;;;;;;1999.90;999.90;;;-0.10;99.90;;;;;;6126240;23;20423;-77
2024/01/10 11:37:41;;;;;;;1999.90;999.90;;;0.00;99.90;;;;;;6125494;23;20006;-78
2024/01/10 11:40:11;;;;;;;1999.90;999.90;;;0.00;99.90;;;;;;6125597;23;20435;-79
2024/01/10 11:42:47;;;;;;;1999.90;999.90;;;0.10;99.90;;;;;;6125157;23;20033;-77
2024/01/10 11:45:31;;;;;;;1999.90;999.90;;;0.20;99.90;;;;;;6127054;23;20086;-78
2024/01/10 11:47:57;;;;;;;1999.90;999.90;;;0.20;99.90;;;;;;6126875;23;20077;-77
2024/01/10 11:50:23;;;;;;;1999.90;999.90;;;0.40;99.90;;;;;;6126908;23;20108;-78
2024/01/10 11:52:53;;;;;;;1999.90;999.90;;;0.40;99.90;;;;;;6126211;23;20442;-78
2024/01/10 11:55:48;;;;;;;1999.90;999.90;;;0.50;99.90;;;;;;6125408;23;20011;-78
2024/01/10 11:58:13;;;;;;;1999.90;999.90;;;0.60;99.90;;;;;;6126866;23;20010;-78